createdAt,value
2023-03-29T00:03:46.255Z,4.40
2023-03-29T00:08:45.607Z,3.70
2023-03-29T00:13:45.702Z,3.70
2023-03-29T00:18:45.676Z,3.90
2023-03-29T00:23:45.637Z,3.80
2023-03-29T00:28:46.063Z,3.90
2023-03-29T00:33:46.104Z,4.10
2023-03-29T00:38:45.745Z,3.50
2023-03-29T00:43:53.262Z,4.20
2023-03-29T00:48:45.747Z,3.70
2023-03-29T00:53:48.517Z,4.40
2023-03-29T00:58:51.061Z,4.20
2023-03-29T01:03:53.325Z,4.20
2023-03-29T01:04:24.723Z,3.90
2023-03-29T01:08:50.077Z,3.90
2023-03-29T01:13:50.836Z,4.40
2023-03-29T01:18:45.964Z,4.60
2023-03-29T01:23:57.320Z,4.50
2023-03-29T01:28:51.304Z,4.30
2023-03-29T01:33:50.388Z,4.30
2023-03-29T01:38:49.673Z,4.40
2023-03-29T01:43:53.378Z,4.10
2023-03-29T01:48:50.142Z,4.80
2023-03-29T01:53:50.150Z,4.30
2023-03-29T01:58:51.601Z,5.40
2023-03-29T01:59:21.985Z,5.40
2023-03-29T11:28:20.535Z,2.80
2023-03-29T11:30:16.266Z,2.80
2023-03-29T11:35:26.213Z,2.20
2023-03-29T11:39:28.471Z,2.20
2023-03-29T11:39:47.268Z,2.20
2023-03-29T11:40:19.391Z,1.90
2023-03-29T11:45:14.132Z,2.70
2023-03-29T11:50:16.155Z,2.90
2023-03-29T11:55:13.376Z,3.20
2023-03-29T11:59:04.302Z,3.20
2023-03-29T12:00:14.740Z,2.90
2023-03-29T12:05:13.732Z,2.80
2023-03-29T12:09:33.100Z,2.80
2023-03-29T12:10:15.692Z,3.00
2023-03-29T12:15:16.290Z,2.90
2023-03-29T12:20:15.756Z,3.10
2023-03-29T12:25:17.357Z,3.20
2023-03-29T14:11:22.159Z,1.70
2023-03-29T14:15:19.817Z,1.90
2023-03-29T14:20:08.767Z,2.10
2023-03-29T14:20:52.724Z,2.10
2023-03-29T14:25:14.687Z,2.20
2023-03-29T14:30:19.850Z,2.60
2023-03-29T14:35:08.769Z,2.40
2023-03-29T14:35:12.319Z,2.40
2023-03-29T14:40:15.928Z,2.10
2023-03-29T14:45:12.602Z,2.30
2023-03-29T14:50:17.025Z,2.10
2023-03-29T14:55:10.033Z,1.90
2023-03-29T15:00:18.391Z,1.80
2023-03-29T15:05:25.034Z,2.20
2023-03-29T15:10:16.286Z,2.50
2023-03-29T15:10:21.731Z,2.50
